sensor_id;sensor_type;location;lat;lon;timestamp;P1;durP1;ratioP1;P2;durP2;ratioP2
57822;SDS011;43650;48.064;20.624;2023-08-17T00:00:50;7.53;;;5.07;;
57822;SDS011;43650;48.064;20.624;2023-08-17T00:01:51;6.85;;;4.80;;
57822;SDS011;43650;48.064;20.624;2023-08-17T00:02:51;7.30;;;4.30;;
57822;SDS011;43650;48.064;20.624;2023-08-17T00:03:52;8.53;;;5.37;;
57822;SDS011;43650;48.064;20.624;2023-08-17T00:04:52;6.13;;;4.67;;
57822;SDS011;43650;48.064;20.624;2023-08-17T00:05:52;6.67;;;4.80;;
57822;SDS011;43650;48.064;20.624;2023-08-17T00:06:53;7.57;;;4.87;;
57822;SDS011;43650;48.064;20.624;2023-08-17T00:07:53;7.23;;;5.77;;
57822;SDS011;43650;48.064;20.624;2023-08-17T00:08:54;6.87;;;5.10;;
57822;SDS011;43650;48.064;20.624;2023-08-17T00:09:54;10.38;;;5.28;;
57822;SDS011;43650;48.064;20.624;2023-08-17T00:10:55;7.13;;;4.73;;
57822;SDS011;43650;48.064;20.624;2023-08-17T00:11:55;6.30;;;5.60;;
57822;SDS011;43650;48.064;20.624;2023-08-17T00:12:56;4.53;;;4.03;;
57822;SDS011;43650;48.064;20.624;2023-08-17T00:13:56;5.72;;;4.40;;
57822;SDS011;43650;48.064;20.624;2023-08-17T00:14:56;8.53;;;5.03;;
57822;SDS011;43650;48.064;20.624;2023-08-17T00:15:57;5.87;;;4.23;;
57822;SDS011;43650;48.064;20.624;2023-08-17T00:16:57;5.67;;;4.20;;
57822;SDS011;43650;48.064;20.624;2023-08-17T00:17:58;4.87;;;3.90;;
57822;SDS011;43650;48.064;20.624;2023-08-17T00:18:58;7.27;;;4.30;;
57822;SDS011;43650;48.064;20.624;2023-08-17T00:19:59;6.37;;;3.63;;
57822;SDS011;43650;48.064;20.624;2023-08-17T00:20:59;4.57;;;4.10;;
57822;SDS011;43650;48.064;20.624;2023-08-17T00:22:00;5.85;;;4.43;;
57822;SDS011;43650;48.064;20.624;2023-08-17T00:23:00;6.67;;;4.40;;
57822;SDS011;43650;48.064;20.624;2023-08-17T00:24:00;6.83;;;4.47;;
57822;SDS011;43650;48.064;20.624;2023-08-17T00:25:01;5.70;;;4.13;;
57822;SDS011;43650;48.064;20.624;2023-08-17T00:26:04;5.35;;;3.65;;
57822;SDS011;43650;48.064;20.624;2023-08-17T00:27:05;5.30;;;4.37;;
57822;SDS011;43650;48.064;20.624;2023-08-17T00:28:05;5.03;;;3.90;;
57822;SDS011;43650;48.064;20.624;2023-08-17T00:29:05;5.80;;;3.60;;
57822;SDS011;43650;48.064;20.624;2023-08-17T00:30:06;5.82;;;3.58;;
57822;SDS011;43650;48.064;20.624;2023-08-17T00:31:07;5.80;;;3.97;;
57822;SDS011;43650;48.064;20.624;2023-08-17T00:32:07;5.97;;;4.10;;
57822;SDS011;43650;48.064;20.624;2023-08-17T00:33:08;6.53;;;3.80;;
57822;SDS011;43650;48.064;20.624;2023-08-17T00:34:08;4.73;;;3.57;;
57822;SDS011;43650;48.064;20.624;2023-08-17T00:35:09;4.60;;;4.07;;
57822;SDS011;43650;48.064;20.624;2023-08-17T00:36:09;8.17;;;3.77;;
57822;SDS011;43650;48.064;20.624;2023-08-17T00:37:09;4.60;;;3.23;;
57822;SDS011;43650;48.064;20.624;2023-08-17T00:38:10;6.37;;;3.93;;
57822;SDS011;43650;48.064;20.624;2023-08-17T00:39:10;4.90;;;3.47;;
57822;SDS011;43650;48.064;20.624;2023-08-17T00:40:11;5.17;;;3.77;;
57822;SDS011;43650;48.064;20.624;2023-08-17T00:41:11;5.18;;;3.83;;
57822;SDS011;43650;48.064;20.624;2023-08-17T00:42:12;5.30;;;3.83;;
57822;SDS011;43650;48.064;20.624;2023-08-17T00:43:12;6.53;;;3.73;;
57822;SDS011;43650;48.064;20.624;2023-08-17T00:44:12;6.63;;;4.50;;
57822;SDS011;43650;48.064;20.624;2023-08-17T00:45:13;9.07;;;5.43;;
57822;SDS011;43650;48.064;20.624;2023-08-17T00:46:13;7.43;;;3.83;;
57822;SDS011;43650;48.064;20.624;2023-08-17T00:47:14;6.07;;;3.58;;
57822;SDS011;43650;48.064;20.624;2023-08-17T00:48:14;4.82;;;3.60;;
57822;SDS011;43650;48.064;20.624;2023-08-17T00:49:15;5.30;;;3.40;;
57822;SDS011;43650;48.064;20.624;2023-08-17T00:50:16;5.40;;;3.37;;
57822;SDS011;43650;48.064;20.624;2023-08-17T00:51:16;7.35;;;3.62;;
57822;SDS011;43650;48.064;20.624;2023-08-17T00:52:20;4.82;;;3.50;;
57822;SDS011;43650;48.064;20.624;2023-08-17T00:53:20;4.03;;;3.10;;
57822;SDS011;43650;48.064;20.624;2023-08-17T00:54:23;5.53;;;2.93;;
57822;SDS011;43650;48.064;20.624;2023-08-17T00:55:24;5.40;;;3.87;;
57822;SDS011;43650;48.064;20.624;2023-08-17T00:56:25;4.70;;;3.30;;
57822;SDS011;43650;48.064;20.624;2023-08-17T00:57:26;6.50;;;4.10;;
57822;SDS011;43650;48.064;20.624;2023-08-17T00:58:27;5.28;;;3.90;;
57822;SDS011;43650;48.064;20.624;2023-08-17T00:59:27;4.93;;;3.42;;
57822;SDS011;43650;48.064;20.624;2023-08-17T01:00:28;5.35;;;3.65;;
57822;SDS011;43650;48.064;20.624;2023-08-17T01:01:29;6.72;;;4.10;;
57822;SDS011;43650;48.064;20.624;2023-08-17T01:02:30;5.75;;;3.67;;
57822;SDS011;43650;48.064;20.624;2023-08-17T01:03:31;6.25;;;4.00;;
57822;SDS011;43650;48.064;20.624;2023-08-17T01:04:32;4.53;;;3.20;;
57822;SDS011;43650;48.064;20.624;2023-08-17T01:05:32;4.73;;;3.67;;
57822;SDS011;43650;48.064;20.624;2023-08-17T01:06:33;6.57;;;4.07;;
57822;SDS011;43650;48.064;20.624;2023-08-17T01:07:33;7.27;;;4.23;;
57822;SDS011;43650;48.064;20.624;2023-08-17T01:08:34;5.72;;;4.07;;
57822;SDS011;43650;48.064;20.624;2023-08-17T01:09:35;4.55;;;3.47;;
57822;SDS011;43650;48.064;20.624;2023-08-17T01:10:41;5.87;;;4.47;;
57822;SDS011;43650;48.064;20.624;2023-08-17T01:11:53;6.55;;;4.32;;
57822;SDS011;43650;48.064;20.624;2023-08-17T01:13:01;8.20;;;4.30;;
57822;SDS011;43650;48.064;20.624;2023-08-17T01:14:25;6.93;;;3.97;;
57822;SDS011;43650;48.064;20.624;2023-08-17T01:15:36;5.05;;;3.90;;
57822;SDS011;43650;48.064;20.624;2023-08-17T01:16:42;6.55;;;4.05;;
57822;SDS011;43650;48.064;20.624;2023-08-17T01:18:34;5.93;;;4.20;;
57822;SDS011;43650;48.064;20.624;2023-08-17T01:19:36;7.32;;;4.35;;
57822;SDS011;43650;48.064;20.624;2023-08-17T01:20:37;6.37;;;4.47;;
57822;SDS011;43650;48.064;20.624;2023-08-17T01:21:41;12.50;;;4.57;;
57822;SDS011;43650;48.064;20.624;2023-08-17T01:22:45;7.43;;;4.90;;
57822;SDS011;43650;48.064;20.624;2023-08-17T01:23:46;5.07;;;3.97;;
57822;SDS011;43650;48.064;20.624;2023-08-17T01:24:47;4.75;;;4.12;;
57822;SDS011;43650;48.064;20.624;2023-08-17T01:25:47;8.33;;;4.63;;
57822;SDS011;43650;48.064;20.624;2023-08-17T01:26:47;11.47;;;4.50;;
57822;SDS011;43650;48.064;20.624;2023-08-17T01:27:48;10.47;;;4.30;;
57822;SDS011;43650;48.064;20.624;2023-08-17T01:28:49;7.10;;;4.30;;
57822;SDS011;43650;48.064;20.624;2023-08-17T01:29:50;7.07;;;4.25;;
57822;SDS011;43650;48.064;20.624;2023-08-17T01:32:08;6.45;;;3.80;;
57822;SDS011;43650;48.064;20.624;2023-08-17T01:33:14;7.70;;;4.62;;
57822;SDS011;43650;48.064;20.624;2023-08-17T01:34:22;7.07;;;4.25;;
57822;SDS011;43650;48.064;20.624;2023-08-17T01:35:27;6.32;;;4.22;;
57822;SDS011;43650;48.064;20.624;2023-08-17T01:36:37;6.18;;;4.60;;
57822;SDS011;43650;48.064;20.624;2023-08-17T01:37:41;7.28;;;4.28;;
57822;SDS011;43650;48.064;20.624;2023-08-17T01:38:42;5.03;;;3.83;;
57822;SDS011;43650;48.064;20.624;2023-08-17T01:39:44;5.37;;;4.10;;
57822;SDS011;43650;48.064;20.624;2023-08-17T01:40:50;7.78;;;4.20;;
57822;SDS011;43650;48.064;20.624;2023-08-17T01:41:50;6.00;;;4.65;;
57822;SDS011;43650;48.064;20.624;2023-08-17T01:42:51;9.03;;;4.97;;
57822;SDS011;43650;48.064;20.624;2023-08-17T01:43:52;4.68;;;3.97;;
57822;SDS011;43650;48.064;20.624;2023-08-17T01:45:53;9.20;;;4.07;;
57822;SDS011;43650;48.064;20.624;2023-08-17T01:46:54;7.62;;;4.72;;
57822;SDS011;43650;48.064;20.624;2023-08-17T01:47:55;5.25;;;4.10;;
57822;SDS011;43650;48.064;20.624;2023-08-17T01:48:55;6.60;;;4.57;;
57822;SDS011;43650;48.064;20.624;2023-08-17T01:49:56;7.33;;;4.50;;
57822;SDS011;43650;48.064;20.624;2023-08-17T01:50:59;6.68;;;4.28;;
57822;SDS011;43650;48.064;20.624;2023-08-17T01:52:00;7.57;;;4.50;;
57822;SDS011;43650;48.064;20.624;2023-08-17T01:53:00;7.97;;;4.95;;
57822;SDS011;43650;48.064;20.624;2023-08-17T01:54:01;6.23;;;4.60;;
57822;SDS011;43650;48.064;20.624;2023-08-17T01:55:01;6.80;;;4.37;;
57822;SDS011;43650;48.064;20.624;2023-08-17T01:56:02;6.00;;;4.37;;
57822;SDS011;43650;48.064;20.624;2023-08-17T01:57:02;6.63;;;4.60;;
57822;SDS011;43650;48.064;20.624;2023-08-17T01:58:03;7.83;;;4.60;;
57822;SDS011;43650;48.064;20.624;2023-08-17T01:59:03;6.65;;;5.20;;
57822;SDS011;43650;48.064;20.624;2023-08-17T02:00:04;5.07;;;4.18;;
57822;SDS011;43650;48.064;20.624;2023-08-17T02:01:05;6.15;;;4.55;;
57822;SDS011;43650;48.064;20.624;2023-08-17T02:02:05;6.13;;;4.70;;
57822;SDS011;43650;48.064;20.624;2023-08-17T02:03:06;6.10;;;5.20;;
57822;SDS011;43650;48.064;20.624;2023-08-17T02:04:06;6.80;;;5.00;;
57822;SDS011;43650;48.064;20.624;2023-08-17T02:05:07;9.37;;;6.60;;
57822;SDS011;43650;48.064;20.624;2023-08-17T02:06:07;7.60;;;4.18;;
57822;SDS011;43650;48.064;20.624;2023-08-17T02:07:08;8.50;;;4.57;;
57822;SDS011;43650;48.064;20.624;2023-08-17T02:08:08;6.83;;;4.00;;
57822;SDS011;43650;48.064;20.624;2023-08-17T02:09:09;5.67;;;4.30;;
57822;SDS011;43650;48.064;20.624;2023-08-17T02:10:09;6.00;;;4.17;;
57822;SDS011;43650;48.064;20.624;2023-08-17T02:11:09;6.87;;;4.32;;
57822;SDS011;43650;48.064;20.624;2023-08-17T02:12:10;8.87;;;4.57;;
57822;SDS011;43650;48.064;20.624;2023-08-17T02:13:10;7.03;;;4.57;;
57822;SDS011;43650;48.064;20.624;2023-08-17T02:14:12;11.10;;;5.35;;
57822;SDS011;43650;48.064;20.624;2023-08-17T02:15:13;6.47;;;4.90;;
57822;SDS011;43650;48.064;20.624;2023-08-17T02:16:13;8.47;;;4.47;;
57822;SDS011;43650;48.064;20.624;2023-08-17T02:17:13;10.77;;;4.97;;
57822;SDS011;43650;48.064;20.624;2023-08-17T02:18:16;8.10;;;4.68;;
57822;SDS011;43650;48.064;20.624;2023-08-17T02:19:17;6.80;;;5.28;;
57822;SDS011;43650;48.064;20.624;2023-08-17T02:20:17;7.87;;;4.90;;
57822;SDS011;43650;48.064;20.624;2023-08-17T02:21:17;6.33;;;4.90;;
57822;SDS011;43650;48.064;20.624;2023-08-17T02:22:18;8.90;;;5.47;;
57822;SDS011;43650;48.064;20.624;2023-08-17T02:23:18;23.53;;;5.43;;
57822;SDS011;43650;48.064;20.624;2023-08-17T02:24:19;11.53;;;6.50;;
57822;SDS011;43650;48.064;20.624;2023-08-17T02:25:19;8.50;;;5.30;;
57822;SDS011;43650;48.064;20.624;2023-08-17T02:26:19;6.40;;;4.90;;
57822;SDS011;43650;48.064;20.624;2023-08-17T02:27:20;12.53;;;5.33;;
57822;SDS011;43650;48.064;20.624;2023-08-17T02:28:20;11.10;;;4.97;;
57822;SDS011;43650;48.064;20.624;2023-08-17T02:29:21;6.25;;;4.65;;
57822;SDS011;43650;48.064;20.624;2023-08-17T02:30:21;8.53;;;5.03;;
57822;SDS011;43650;48.064;20.624;2023-08-17T02:31:22;8.87;;;5.33;;
57822;SDS011;43650;48.064;20.624;2023-08-17T02:32:22;11.63;;;6.00;;
57822;SDS011;43650;48.064;20.624;2023-08-17T02:33:22;8.53;;;5.80;;
57822;SDS011;43650;48.064;20.624;2023-08-17T02:34:24;7.82;;;5.15;;
57822;SDS011;43650;48.064;20.624;2023-08-17T02:35:24;9.53;;;4.80;;
57822;SDS011;43650;48.064;20.624;2023-08-17T02:36:25;8.63;;;4.93;;
57822;SDS011;43650;48.064;20.624;2023-08-17T02:37:25;7.57;;;5.37;;
57822;SDS011;43650;48.064;20.624;2023-08-17T02:38:26;8.37;;;5.17;;
57822;SDS011;43650;48.064;20.624;2023-08-17T02:39:26;7.10;;;5.17;;
57822;SDS011;43650;48.064;20.624;2023-08-17T02:40:26;7.60;;;4.60;;
57822;SDS011;43650;48.064;20.624;2023-08-17T02:41:27;8.13;;;4.93;;
57822;SDS011;43650;48.064;20.624;2023-08-17T02:42:27;8.37;;;5.30;;
57822;SDS011;43650;48.064;20.624;2023-08-17T02:43:28;8.20;;;5.30;;
57822;SDS011;43650;48.064;20.624;2023-08-17T02:44:28;6.90;;;5.07;;
57822;SDS011;43650;48.064;20.624;2023-08-17T02:45:28;7.33;;;5.53;;
57822;SDS011;43650;48.064;20.624;2023-08-17T02:46:29;10.37;;;6.30;;
57822;SDS011;43650;48.064;20.624;2023-08-17T02:47:29;8.00;;;5.57;;
57822;SDS011;43650;48.064;20.624;2023-08-17T02:48:30;7.33;;;5.53;;
57822;SDS011;43650;48.064;20.624;2023-08-17T02:49:30;9.10;;;5.27;;
57822;SDS011;43650;48.064;20.624;2023-08-17T02:50:30;8.93;;;5.73;;
57822;SDS011;43650;48.064;20.624;2023-08-17T02:51:31;9.43;;;6.53;;
57822;SDS011;43650;48.064;20.624;2023-08-17T02:52:34;8.40;;;5.43;;
57822;SDS011;43650;48.064;20.624;2023-08-17T02:53:35;10.57;;;5.80;;
57822;SDS011;43650;48.064;20.624;2023-08-17T02:54:36;6.93;;;5.55;;
57822;SDS011;43650;48.064;20.624;2023-08-17T02:55:36;10.43;;;5.43;;
57822;SDS011;43650;48.064;20.624;2023-08-17T02:56:36;9.00;;;5.47;;
57822;SDS011;43650;48.064;20.624;2023-08-17T02:57:37;6.47;;;5.53;;
57822;SDS011;43650;48.064;20.624;2023-08-17T02:58:38;9.00;;;5.47;;
57822;SDS011;43650;48.064;20.624;2023-08-17T02:59:40;6.07;;;4.97;;
57822;SDS011;43650;48.064;20.624;2023-08-17T03:00:41;9.03;;;6.40;;
57822;SDS011;43650;48.064;20.624;2023-08-17T03:01:41;8.17;;;5.50;;
57822;SDS011;43650;48.064;20.624;2023-08-17T03:02:42;9.83;;;6.73;;
57822;SDS011;43650;48.064;20.624;2023-08-17T03:03:42;6.53;;;5.40;;
57822;SDS011;43650;48.064;20.624;2023-08-17T03:04:42;8.17;;;6.07;;
57822;SDS011;43650;48.064;20.624;2023-08-17T03:05:43;8.17;;;5.53;;
57822;SDS011;43650;48.064;20.624;2023-08-17T03:06:43;8.73;;;4.83;;
57822;SDS011;43650;48.064;20.624;2023-08-17T03:07:44;11.93;;;5.97;;
57822;SDS011;43650;48.064;20.624;2023-08-17T03:08:44;9.17;;;6.27;;
57822;SDS011;43650;48.064;20.624;2023-08-17T03:09:44;6.70;;;5.27;;
57822;SDS011;43650;48.064;20.624;2023-08-17T03:10:45;6.47;;;4.73;;
57822;SDS011;43650;48.064;20.624;2023-08-17T03:11:45;9.17;;;5.57;;
57822;SDS011;43650;48.064;20.624;2023-08-17T03:12:46;9.13;;;5.27;;
57822;SDS011;43650;48.064;20.624;2023-08-17T03:13:46;7.60;;;5.67;;
57822;SDS011;43650;48.064;20.624;2023-08-17T03:14:48;8.73;;;6.97;;
57822;SDS011;43650;48.064;20.624;2023-08-17T03:15:48;7.57;;;5.60;;
57822;SDS011;43650;48.064;20.624;2023-08-17T03:16:48;8.23;;;5.67;;
57822;SDS011;43650;48.064;20.624;2023-08-17T03:17:49;7.63;;;5.10;;
57822;SDS011;43650;48.064;20.624;2023-08-17T03:18:49;7.10;;;5.40;;
57822;SDS011;43650;48.064;20.624;2023-08-17T03:19:50;10.10;;;5.87;;
57822;SDS011;43650;48.064;20.624;2023-08-17T03:20:50;8.07;;;5.57;;
57822;SDS011;43650;48.064;20.624;2023-08-17T03:21:50;8.13;;;6.63;;
57822;SDS011;43650;48.064;20.624;2023-08-17T03:22:51;6.47;;;5.37;;
57822;SDS011;43650;48.064;20.624;2023-08-17T03:23:51;6.73;;;5.57;;
57822;SDS011;43650;48.064;20.624;2023-08-17T03:24:54;8.83;;;5.70;;
57822;SDS011;43650;48.064;20.624;2023-08-17T03:25:55;9.05;;;5.12;;
57822;SDS011;43650;48.064;20.624;2023-08-17T03:26:55;8.50;;;5.17;;
57822;SDS011;43650;48.064;20.624;2023-08-17T03:27:56;8.57;;;5.83;;
57822;SDS011;43650;48.064;20.624;2023-08-17T03:28:56;11.37;;;5.67;;
57822;SDS011;43650;48.064;20.624;2023-08-17T03:29:56;12.00;;;5.67;;
57822;SDS011;43650;48.064;20.624;2023-08-17T03:30:57;12.00;;;6.17;;
57822;SDS011;43650;48.064;20.624;2023-08-17T03:31:57;7.10;;;5.30;;
57822;SDS011;43650;48.064;20.624;2023-08-17T03:32:58;7.23;;;5.30;;
57822;SDS011;43650;48.064;20.624;2023-08-17T03:33:58;10.23;;;5.33;;
57822;SDS011;43650;48.064;20.624;2023-08-17T03:35:00;9.82;;;5.72;;
57822;SDS011;43650;48.064;20.624;2023-08-17T03:36:01;7.70;;;4.90;;
57822;SDS011;43650;48.064;20.624;2023-08-17T03:37:03;6.55;;;5.15;;
57822;SDS011;43650;48.064;20.624;2023-08-17T03:38:03;8.40;;;5.55;;
57822;SDS011;43650;48.064;20.624;2023-08-17T03:39:04;7.47;;;5.40;;
57822;SDS011;43650;48.064;20.624;2023-08-17T03:40:04;7.57;;;5.67;;
57822;SDS011;43650;48.064;20.624;2023-08-17T03:41:06;7.60;;;5.50;;
57822;SDS011;43650;48.064;20.624;2023-08-17T03:42:07;6.82;;;5.00;;
57822;SDS011;43650;48.064;20.624;2023-08-17T03:43:07;7.63;;;4.93;;
57822;SDS011;43650;48.064;20.624;2023-08-17T03:44:08;7.77;;;5.00;;
57822;SDS011;43650;48.064;20.624;2023-08-17T03:45:09;10.82;;;6.12;;
57822;SDS011;43650;48.064;20.624;2023-08-17T03:46:09;10.03;;;5.43;;
57822;SDS011;43650;48.064;20.624;2023-08-17T03:47:10;6.17;;;5.23;;
57822;SDS011;43650;48.064;20.624;2023-08-17T03:48:10;10.03;;;6.50;;
57822;SDS011;43650;48.064;20.624;2023-08-17T03:49:11;7.93;;;5.53;;
57822;SDS011;43650;48.064;20.624;2023-08-17T03:50:11;10.80;;;6.00;;
57822;SDS011;43650;48.064;20.624;2023-08-17T03:51:12;7.23;;;5.97;;
57822;SDS011;43650;48.064;20.624;2023-08-17T03:52:12;6.80;;;5.30;;
57822;SDS011;43650;48.064;20.624;2023-08-17T03:53:12;13.77;;;5.83;;
57822;SDS011;43650;48.064;20.624;2023-08-17T03:54:13;12.40;;;5.47;;
57822;SDS011;43650;48.064;20.624;2023-08-17T03:55:13;8.00;;;5.50;;
57822;SDS011;43650;48.064;20.624;2023-08-17T03:56:14;9.03;;;5.67;;
57822;SDS011;43650;48.064;20.624;2023-08-17T03:57:14;10.13;;;5.37;;
57822;SDS011;43650;48.064;20.624;2023-08-17T03:58:15;8.17;;;5.87;;
57822;SDS011;43650;48.064;20.624;2023-08-17T03:59:16;7.95;;;6.05;;
57822;SDS011;43650;48.064;20.624;2023-08-17T04:00:16;7.87;;;5.70;;
57822;SDS011;43650;48.064;20.624;2023-08-17T04:01:16;9.33;;;5.67;;
57822;SDS011;43650;48.064;20.624;2023-08-17T04:02:17;14.63;;;7.20;;
57822;SDS011;43650;48.064;20.624;2023-08-17T04:03:18;7.87;;;5.67;;
57822;SDS011;43650;48.064;20.624;2023-08-17T04:04:21;7.28;;;5.18;;
57822;SDS011;43650;48.064;20.624;2023-08-17T04:05:22;10.38;;;5.43;;
57822;SDS011;43650;48.064;20.624;2023-08-17T04:06:22;10.23;;;6.63;;
57822;SDS011;43650;48.064;20.624;2023-08-17T04:07:23;9.67;;;6.53;;
57822;SDS011;43650;48.064;20.624;2023-08-17T04:08:23;10.60;;;6.78;;
57822;SDS011;43650;48.064;20.624;2023-08-17T04:09:24;14.13;;;6.20;;
57822;SDS011;43650;48.064;20.624;2023-08-17T04:10:24;13.10;;;6.77;;
57822;SDS011;43650;48.064;20.624;2023-08-17T04:11:24;10.70;;;5.37;;
57822;SDS011;43650;48.064;20.624;2023-08-17T04:12:25;9.63;;;6.53;;
57822;SDS011;43650;48.064;20.624;2023-08-17T04:13:25;7.90;;;5.50;;
57822;SDS011;43650;48.064;20.624;2023-08-17T04:14:27;11.82;;;6.50;;
57822;SDS011;43650;48.064;20.624;2023-08-17T04:15:27;9.93;;;5.73;;
57822;SDS011;43650;48.064;20.624;2023-08-17T04:16:28;10.83;;;5.67;;
57822;SDS011;43650;48.064;20.624;2023-08-17T04:17:28;9.00;;;5.80;;
57822;SDS011;43650;48.064;20.624;2023-08-17T04:18:28;6.83;;;5.57;;
57822;SDS011;43650;48.064;20.624;2023-08-17T04:19:29;14.47;;;5.57;;
57822;SDS011;43650;48.064;20.624;2023-08-17T04:20:29;8.23;;;5.93;;
57822;SDS011;43650;48.064;20.624;2023-08-17T04:21:30;6.60;;;5.67;;
57822;SDS011;43650;48.064;20.624;2023-08-17T04:22:30;7.60;;;4.90;;
57822;SDS011;43650;48.064;20.624;2023-08-17T04:23:31;10.30;;;5.43;;
57822;SDS011;43650;48.064;20.624;2023-08-17T04:24:31;10.00;;;5.43;;
57822;SDS011;43650;48.064;20.624;2023-08-17T04:25:32;8.90;;;5.17;;
57822;SDS011;43650;48.064;20.624;2023-08-17T04:26:32;7.03;;;5.20;;
57822;SDS011;43650;48.064;20.624;2023-08-17T04:27:33;12.57;;;5.80;;
57822;SDS011;43650;48.064;20.624;2023-08-17T04:28:33;7.20;;;4.90;;
57822;SDS011;43650;48.064;20.624;2023-08-17T04:29:33;8.90;;;5.67;;
57822;SDS011;43650;48.064;20.624;2023-08-17T04:30:34;10.10;;;6.97;;
57822;SDS011;43650;48.064;20.624;2023-08-17T04:31:35;7.97;;;5.75;;
57822;SDS011;43650;48.064;20.624;2023-08-17T04:32:35;10.37;;;5.67;;
57822;SDS011;43650;48.064;20.624;2023-08-17T04:33:35;9.37;;;5.67;;
57822;SDS011;43650;48.064;20.624;2023-08-17T04:34:36;6.73;;;5.20;;
57822;SDS011;43650;48.064;20.624;2023-08-17T04:35:36;13.10;;;5.83;;
57822;SDS011;43650;48.064;20.624;2023-08-17T04:36:37;6.63;;;5.40;;
57822;SDS011;43650;48.064;20.624;2023-08-17T04:37:37;7.23;;;5.70;;
57822;SDS011;43650;48.064;20.624;2023-08-17T04:38:37;8.00;;;5.77;;
57822;SDS011;43650;48.064;20.624;2023-08-17T04:39:38;8.83;;;5.87;;
57822;SDS011;43650;48.064;20.624;2023-08-17T04:40:38;8.60;;;5.23;;
57822;SDS011;43650;48.064;20.624;2023-08-17T04:41:39;8.60;;;6.20;;
57822;SDS011;43650;48.064;20.624;2023-08-17T04:42:39;8.07;;;5.47;;
57822;SDS011;43650;48.064;20.624;2023-08-17T04:43:39;13.23;;;5.60;;
57822;SDS011;43650;48.064;20.624;2023-08-17T04:44:40;9.05;;;5.28;;
57822;SDS011;43650;48.064;20.624;2023-08-17T04:45:41;8.73;;;5.60;;
57822;SDS011;43650;48.064;20.624;2023-08-17T04:46:41;8.10;;;5.70;;
57822;SDS011;43650;48.064;20.624;2023-08-17T04:47:42;8.97;;;4.90;;
57822;SDS011;43650;48.064;20.624;2023-08-17T04:48:42;11.63;;;6.00;;
57822;SDS011;43650;48.064;20.624;2023-08-17T04:49:42;12.17;;;5.67;;
57822;SDS011;43650;48.064;20.624;2023-08-17T04:50:43;9.03;;;5.43;;
57822;SDS011;43650;48.064;20.624;2023-08-17T04:51:43;10.27;;;5.67;;
57822;SDS011;43650;48.064;20.624;2023-08-17T04:52:44;8.67;;;5.90;;
57822;SDS011;43650;48.064;20.624;2023-08-17T04:53:44;11.13;;;6.40;;
57822;SDS011;43650;48.064;20.624;2023-08-17T04:54:44;9.13;;;6.03;;
57822;SDS011;43650;48.064;20.624;2023-08-17T04:55:45;9.70;;;5.70;;
57822;SDS011;43650;48.064;20.624;2023-08-17T04:56:45;7.13;;;5.40;;
57822;SDS011;43650;48.064;20.624;2023-08-17T04:57:46;7.30;;;5.37;;
57822;SDS011;43650;48.064;20.624;2023-08-17T04:58:46;7.93;;;5.27;;
57822;SDS011;43650;48.064;20.624;2023-08-17T04:59:47;8.47;;;5.87;;
57822;SDS011;43650;48.064;20.624;2023-08-17T05:00:47;10.20;;;5.30;;
57822;SDS011;43650;48.064;20.624;2023-08-17T05:01:48;7.37;;;5.60;;
57822;SDS011;43650;48.064;20.624;2023-08-17T05:02:48;6.40;;;5.43;;
57822;SDS011;43650;48.064;20.624;2023-08-17T05:03:48;11.40;;;5.07;;
57822;SDS011;43650;48.064;20.624;2023-08-17T05:04:49;8.40;;;6.37;;
57822;SDS011;43650;48.064;20.624;2023-08-17T05:05:49;11.17;;;6.13;;
57822;SDS011;43650;48.064;20.624;2023-08-17T05:06:52;10.38;;;6.07;;
57822;SDS011;43650;48.064;20.624;2023-08-17T05:07:52;9.60;;;5.97;;
57822;SDS011;43650;48.064;20.624;2023-08-17T05:08:53;8.90;;;6.05;;
57822;SDS011;43650;48.064;20.624;2023-08-17T05:09:53;10.30;;;6.27;;
57822;SDS011;43650;48.064;20.624;2023-08-17T05:10:53;22.67;;;7.67;;
57822;SDS011;43650;48.064;20.624;2023-08-17T05:11:54;8.33;;;6.57;;
57822;SDS011;43650;48.064;20.624;2023-08-17T05:12:54;10.33;;;6.20;;
57822;SDS011;43650;48.064;20.624;2023-08-17T05:13:55;11.07;;;6.87;;
57822;SDS011;43650;48.064;20.624;2023-08-17T05:14:55;12.23;;;7.10;;
57822;SDS011;43650;48.064;20.624;2023-08-17T05:15:56;14.80;;;6.97;;
57822;SDS011;43650;48.064;20.624;2023-08-17T05:16:56;15.77;;;7.57;;
57822;SDS011;43650;48.064;20.624;2023-08-17T05:17:57;10.45;;;6.62;;
57822;SDS011;43650;48.064;20.624;2023-08-17T05:18:58;14.50;;;6.83;;
57822;SDS011;43650;48.064;20.624;2023-08-17T05:20:59;12.30;;;6.35;;
57822;SDS011;43650;48.064;20.624;2023-08-17T05:22:00;10.32;;;7.43;;
57822;SDS011;43650;48.064;20.624;2023-08-17T05:23:01;12.07;;;6.93;;
57822;SDS011;43650;48.064;20.624;2023-08-17T05:24:01;10.60;;;6.87;;
57822;SDS011;43650;48.064;20.624;2023-08-17T05:25:02;9.33;;;6.97;;
57822;SDS011;43650;48.064;20.624;2023-08-17T05:26:02;10.30;;;7.45;;
57822;SDS011;43650;48.064;20.624;2023-08-17T05:27:03;10.90;;;7.23;;
57822;SDS011;43650;48.064;20.624;2023-08-17T05:28:03;8.10;;;6.60;;
57822;SDS011;43650;48.064;20.624;2023-08-17T05:29:04;10.60;;;7.10;;
57822;SDS011;43650;48.064;20.624;2023-08-17T05:30:05;9.52;;;6.60;;
57822;SDS011;43650;48.064;20.624;2023-08-17T05:32:07;7.90;;;6.32;;
57822;SDS011;43650;48.064;20.624;2023-08-17T05:33:07;13.60;;;7.37;;
57822;SDS011;43650;48.064;20.624;2023-08-17T05:34:07;8.93;;;7.33;;
57822;SDS011;43650;48.064;20.624;2023-08-17T05:35:08;15.77;;;7.60;;
57822;SDS011;43650;48.064;20.624;2023-08-17T05:36:08;13.20;;;8.83;;
57822;SDS011;43650;48.064;20.624;2023-08-17T05:37:09;13.55;;;7.57;;
57822;SDS011;43650;48.064;20.624;2023-08-17T05:38:09;13.17;;;7.60;;
57822;SDS011;43650;48.064;20.624;2023-08-17T05:39:09;13.17;;;7.93;;
57822;SDS011;43650;48.064;20.624;2023-08-17T05:40:10;10.37;;;7.07;;
57822;SDS011;43650;48.064;20.624;2023-08-17T05:41:11;20.08;;;8.40;;
57822;SDS011;43650;48.064;20.624;2023-08-17T05:42:11;13.87;;;6.87;;
57822;SDS011;43650;48.064;20.624;2023-08-17T05:43:11;12.97;;;8.43;;
57822;SDS011;43650;48.064;20.624;2023-08-17T05:44:12;10.13;;;7.43;;
57822;SDS011;43650;48.064;20.624;2023-08-17T05:45:14;12.00;;;7.68;;
57822;SDS011;43650;48.064;20.624;2023-08-17T05:46:14;15.25;;;7.95;;
57822;SDS011;43650;48.064;20.624;2023-08-17T05:47:15;10.10;;;7.57;;
57822;SDS011;43650;48.064;20.624;2023-08-17T05:48:20;10.10;;;7.53;;
57822;SDS011;43650;48.064;20.624;2023-08-17T05:49:21;10.73;;;7.35;;
57822;SDS011;43650;48.064;20.624;2023-08-17T05:50:22;9.43;;;8.07;;
57822;SDS011;43650;48.064;20.624;2023-08-17T05:51:22;12.13;;;8.70;;
57822;SDS011;43650;48.064;20.624;2023-08-17T05:52:22;9.97;;;7.37;;
57822;SDS011;43650;48.064;20.624;2023-08-17T05:53:23;10.18;;;7.80;;
57822;SDS011;43650;48.064;20.624;2023-08-17T05:54:23;10.20;;;7.55;;
57822;SDS011;43650;48.064;20.624;2023-08-17T05:55:24;10.33;;;7.63;;
57822;SDS011;43650;48.064;20.624;2023-08-17T05:56:24;9.40;;;7.37;;
57822;SDS011;43650;48.064;20.624;2023-08-17T05:57:25;10.03;;;8.10;;
57822;SDS011;43650;48.064;20.624;2023-08-17T05:58:25;9.90;;;7.33;;
57822;SDS011;43650;48.064;20.624;2023-08-17T05:59:26;9.30;;;6.90;;
57822;SDS011;43650;48.064;20.624;2023-08-17T06:00:26;10.83;;;8.27;;
57822;SDS011;43650;48.064;20.624;2023-08-17T06:01:26;11.03;;;8.00;;
57822;SDS011;43650;48.064;20.624;2023-08-17T06:02:27;13.73;;;7.70;;
57822;SDS011;43650;48.064;20.624;2023-08-17T06:03:27;11.70;;;7.27;;
57822;SDS011;43650;48.064;20.624;2023-08-17T06:04:27;8.97;;;7.33;;
57822;SDS011;43650;48.064;20.624;2023-08-17T06:05:28;12.87;;;7.60;;